createdAt,value
2022-11-05T00:05:58.320Z,1011.61
2022-11-05T00:15:58.360Z,1011.74
2022-11-05T00:25:58.668Z,1011.82
2022-11-05T00:35:58.685Z,1011.90
2022-11-05T00:45:59.239Z,1012.03
2022-11-05T00:55:59.083Z,1012.10
2022-11-05T01:05:59.483Z,1012.22
2022-11-05T01:15:59.499Z,1012.19
2022-11-05T01:25:59.833Z,1012.32
2022-11-05T01:35:59.844Z,1012.44
2022-11-05T01:46:00.177Z,1012.45
2022-11-05T01:56:00.208Z,1012.52
2022-11-05T02:06:00.522Z,1012.52
2022-11-05T02:16:00.553Z,1012.63
2022-11-05T02:26:00.870Z,1012.66
2022-11-05T02:36:03.077Z,1012.70
2022-11-05T02:46:01.226Z,1012.75
2022-11-05T02:56:01.263Z,1012.80
2022-11-05T03:06:01.673Z,1012.88
2022-11-05T03:16:01.701Z,1012.91
2022-11-05T03:26:02.031Z,1013.04
2022-11-05T03:36:02.106Z,1013.13
2022-11-05T03:46:02.165Z,1013.24
2022-11-05T03:56:02.398Z,1013.34
2022-11-05T04:06:02.721Z,1013.40
2022-11-05T04:16:02.741Z,1013.52
2022-11-05T04:26:03.069Z,1013.63
2022-11-05T04:36:03.086Z,1013.72
2022-11-05T04:46:03.430Z,1013.75
2022-11-05T04:56:03.451Z,1013.88
2022-11-05T05:06:04.268Z,1013.99
2022-11-05T05:16:03.739Z,1014.09
2022-11-05T05:26:04.021Z,1014.19
2022-11-05T05:36:09.958Z,1014.35
2022-11-05T05:46:05.413Z,1014.38
2022-11-05T05:56:04.545Z,1014.45
2022-11-05T06:06:04.561Z,1014.57
2022-11-05T06:16:04.903Z,1014.69
2022-11-05T06:26:04.926Z,1014.79
2022-11-05T06:36:05.257Z,1014.89
2022-11-05T06:46:05.272Z,1015.09
2022-11-05T06:56:05.601Z,1015.14
2022-11-05T07:06:05.634Z,1015.28
2022-11-05T07:16:05.940Z,1015.35
2022-11-05T07:26:06.054Z,1015.59
2022-11-05T07:36:06.270Z,1015.72
2022-11-05T07:46:11.150Z,1015.78
2022-11-05T07:56:07.560Z,1015.84
2022-11-05T08:06:06.869Z,1015.97
2022-11-05T08:16:06.899Z,1016.05
2022-11-05T08:26:07.162Z,1016.11
2022-11-05T08:36:07.384Z,1016.11
2022-11-05T08:46:08.650Z,1016.21
2022-11-05T08:56:07.883Z,1016.34
2022-11-05T09:06:08.181Z,1016.43
2022-11-05T09:16:08.209Z,1016.53
2022-11-05T09:26:08.535Z,1016.56
2022-11-05T09:36:08.555Z,1016.66
2022-11-05T09:46:08.877Z,1016.74
2022-11-05T09:56:08.907Z,1016.79
2022-11-05T10:06:09.236Z,1016.84
2022-11-05T10:16:09.266Z,1016.89
2022-11-05T10:26:09.578Z,1016.95
2022-11-05T10:36:09.603Z,1016.94
2022-11-05T10:46:09.934Z,1016.97
2022-11-05T10:56:10.081Z,1017.04
2022-11-05T11:06:10.170Z,1017.09
2022-11-05T11:16:10.187Z,1017.08
2022-11-05T11:26:10.524Z,1017.23
2022-11-05T11:36:10.548Z,1017.15
2022-11-05T11:46:14.912Z,1017.17
2022-11-05T11:56:10.971Z,1017.21
2022-11-05T12:06:11.331Z,1017.25
2022-11-05T12:16:11.374Z,1017.29
2022-11-05T12:26:11.701Z,1017.32
2022-11-05T12:36:11.739Z,1017.33
2022-11-05T12:46:12.019Z,1017.37
2022-11-05T12:56:12.050Z,1017.42
2022-11-05T13:06:12.475Z,1017.29
2022-11-05T13:16:12.649Z,1017.37
2022-11-05T13:26:17.053Z,1017.29
2022-11-05T13:36:14.091Z,1017.28
2022-11-05T13:46:14.390Z,1017.19
2022-11-05T13:56:13.290Z,1017.15
2022-11-05T14:06:13.716Z,1017.18
2022-11-05T14:16:13.705Z,1017.15
2022-11-05T14:26:13.728Z,1017.18
2022-11-05T14:36:14.056Z,1017.18
2022-11-05T14:46:14.075Z,1017.41
2022-11-05T14:56:14.396Z,1017.44
2022-11-05T15:06:14.411Z,1017.47
2022-11-05T15:16:14.748Z,1017.52
2022-11-05T15:26:15.756Z,1017.61
2022-11-05T15:36:16.603Z,1017.56
2022-11-05T15:46:15.329Z,1017.65
2022-11-05T15:56:15.243Z,1017.72
2022-11-05T16:06:15.485Z,1017.82
2022-11-05T16:16:16.015Z,1017.99
2022-11-05T16:26:25.378Z,1018.17
2022-11-05T16:36:17.067Z,1018.24
2022-11-05T16:46:16.160Z,1018.33
2022-11-05T16:56:16.416Z,1018.38
2022-11-05T17:06:16.462Z,1018.46
2022-11-05T17:16:16.500Z,1018.43
2022-11-05T17:26:17.038Z,1018.48
2022-11-05T17:36:17.164Z,1018.62
2022-11-05T17:46:17.282Z,1018.70
2022-11-05T17:56:27.214Z,1018.89
2022-11-05T18:06:18.266Z,1018.86
2022-11-05T18:16:17.814Z,1018.76
2022-11-05T18:26:17.923Z,1018.82
2022-11-05T18:36:18.149Z,1018.84
2022-11-05T18:46:43.019Z,1018.72
2022-11-05T18:56:19.330Z,1018.75
2022-11-05T19:06:18.335Z,1018.79
2022-11-05T19:16:19.174Z,1018.93
2022-11-05T19:26:20.063Z,1019.02
2022-11-05T19:36:18.623Z,1018.97
2022-11-05T19:46:19.210Z,1018.86
2022-11-05T19:56:19.357Z,1019.01
2022-11-05T20:06:19.542Z,1019.05
2022-11-05T20:16:20.306Z,1019.05
2022-11-05T20:26:19.865Z,1019.06
2022-11-05T20:36:19.990Z,1019.06
2022-11-05T20:46:20.200Z,1019.05
2022-11-05T20:56:20.286Z,1019.06
2022-11-05T21:06:20.473Z,1019.15
2022-11-05T21:16:20.603Z,1019.15
2022-11-05T21:26:24.475Z,1019.26
2022-11-05T21:36:23.706Z,1019.24
2022-11-05T21:46:21.093Z,1019.21
2022-11-05T21:56:21.015Z,1019.08
2022-11-05T22:06:21.300Z,1019.07
2022-11-05T22:16:21.319Z,1018.89
2022-11-05T22:26:21.665Z,1018.84
2022-11-05T22:36:21.705Z,1018.86
2022-11-05T22:46:22.002Z,1018.79
2022-11-05T22:56:22.031Z,1018.78
2022-11-05T23:06:22.249Z,1018.73
2022-11-05T23:16:22.276Z,1018.88
2022-11-05T23:26:22.602Z,1018.73
2022-11-05T23:36:22.622Z,1018.74
2022-11-05T23:46:22.989Z,1018.69
2022-11-05T23:56:23.007Z,1018.54
